createdAt,value
2022-11-24T00:00:53.148Z,982.83
2022-11-24T00:01:53.194Z,982.84
2022-11-24T00:02:53.225Z,982.87
2022-11-24T00:03:53.140Z,982.89
2022-11-24T00:04:53.139Z,982.90
2022-11-24T00:05:53.125Z,982.83
2022-11-24T00:06:53.149Z,982.86
2022-11-24T00:07:53.157Z,982.91
2022-11-24T00:08:53.115Z,982.92
2022-11-24T00:09:53.101Z,982.88
2022-11-24T00:10:53.100Z,982.90
2022-11-24T00:11:53.087Z,982.89
2022-11-24T00:12:53.079Z,982.93
2022-11-24T00:13:53.069Z,982.84
2022-11-24T00:14:53.068Z,982.93
2022-11-24T00:15:53.053Z,982.91
2022-11-24T00:16:53.094Z,982.97
2022-11-24T00:17:53.040Z,982.95
2022-11-24T00:18:53.036Z,982.97
2022-11-24T00:19:53.016Z,982.97
2022-11-24T00:20:53.027Z,983.00
2022-11-24T00:21:53.044Z,982.93
2022-11-24T00:22:53.026Z,983.02
2022-11-24T00:23:52.993Z,982.99
2022-11-24T00:24:53.985Z,983.06
2022-11-24T00:25:53.994Z,982.97
2022-11-24T00:26:52.980Z,983.01
2022-11-24T00:27:53.000Z,983.00
2022-11-24T00:28:52.972Z,983.06
2022-11-24T00:29:52.959Z,983.02
2022-11-24T00:30:53.002Z,982.99
2022-11-24T00:31:52.959Z,982.98
2022-11-24T00:32:52.948Z,983.01
2022-11-24T00:33:52.940Z,983.00
2022-11-24T00:34:52.940Z,982.99
2022-11-24T00:35:52.932Z,983.00
2022-11-24T00:36:52.907Z,982.96
2022-11-24T00:37:52.907Z,983.12
2022-11-24T00:38:52.899Z,983.07
2022-11-24T00:39:53.056Z,983.12
2022-11-24T00:40:52.887Z,982.98
2022-11-24T00:41:52.864Z,983.14
2022-11-24T00:42:52.872Z,983.13
2022-11-24T00:43:52.863Z,983.10
2022-11-24T00:44:52.862Z,983.07
2022-11-24T00:45:53.012Z,983.05
2022-11-24T00:46:53.013Z,983.20
2022-11-24T00:47:52.832Z,983.16
2022-11-24T00:48:52.823Z,983.16
2022-11-24T00:49:52.839Z,983.14
2022-11-24T00:50:52.824Z,983.19
2022-11-24T00:51:52.804Z,983.19
2022-11-24T00:52:52.805Z,983.22
2022-11-24T00:53:52.796Z,983.29
2022-11-24T00:54:52.800Z,983.31
2022-11-24T00:55:52.784Z,983.28
2022-11-24T00:56:52.767Z,983.30
2022-11-24T00:57:52.769Z,983.35
2022-11-24T00:58:52.771Z,983.32
2022-11-24T00:59:52.750Z,983.37
2022-11-24T01:00:52.761Z,983.35
2022-11-24T01:01:52.782Z,983.34
2022-11-24T01:02:52.833Z,983.43
2022-11-24T01:03:52.716Z,983.36
2022-11-24T01:04:52.719Z,983.33
2022-11-24T01:05:52.732Z,983.38
2022-11-24T01:06:52.692Z,983.33
2022-11-24T01:07:52.719Z,983.44
2022-11-24T01:08:52.703Z,983.48
2022-11-24T01:09:52.683Z,983.36
2022-11-24T01:10:52.676Z,983.40
2022-11-24T01:11:52.688Z,983.35
2022-11-24T01:12:52.680Z,983.45
2022-11-24T01:13:52.663Z,983.48
2022-11-24T01:14:52.648Z,983.53
2022-11-24T01:15:52.687Z,983.51
2022-11-24T01:16:52.647Z,983.54
2022-11-24T01:17:52.632Z,983.56
2022-11-24T01:18:52.627Z,983.57
2022-11-24T01:19:52.623Z,983.60
2022-11-24T01:20:52.606Z,983.59
2022-11-24T01:21:52.603Z,983.61
2022-11-24T01:22:52.613Z,983.63
2022-11-24T01:23:52.586Z,983.63
2022-11-24T01:24:52.580Z,983.65
2022-11-24T01:25:52.575Z,983.66
2022-11-24T01:26:52.571Z,983.73
2022-11-24T01:27:52.591Z,983.73
2022-11-24T01:28:52.564Z,983.75
2022-11-24T01:29:52.568Z,983.67
2022-11-24T01:30:52.584Z,983.74
2022-11-24T01:31:52.542Z,983.69
2022-11-24T01:32:52.535Z,983.72
2022-11-24T01:33:52.552Z,983.70
2022-11-24T01:34:52.539Z,983.70
2022-11-24T01:35:52.519Z,983.71
2022-11-24T01:36:52.512Z,983.69
2022-11-24T01:37:52.507Z,983.72
2022-11-24T01:38:52.492Z,983.72
2022-11-24T01:39:52.495Z,983.74
2022-11-24T01:40:52.481Z,983.80
2022-11-24T01:41:52.464Z,983.78
2022-11-24T01:42:53.474Z,983.72
2022-11-24T01:43:52.478Z,983.79
2022-11-24T01:44:52.456Z,983.76
2022-11-24T01:45:52.476Z,983.75
2022-11-24T01:46:52.464Z,983.73
2022-11-24T01:47:52.436Z,983.76
2022-11-24T01:48:52.433Z,983.72
2022-11-24T01:49:52.424Z,983.68
2022-11-24T01:50:52.411Z,983.73
2022-11-24T01:51:52.411Z,983.66
2022-11-24T01:52:52.407Z,983.68
2022-11-24T01:53:52.408Z,983.68
2022-11-24T01:54:52.385Z,983.61
2022-11-24T01:55:52.376Z,983.65
2022-11-24T01:56:52.388Z,983.70
2022-11-24T01:57:52.367Z,983.69
2022-11-24T01:58:52.388Z,983.70
2022-11-24T01:59:52.351Z,983.75
2022-11-24T02:00:52.992Z,983.71
2022-11-24T02:01:52.366Z,983.69
2022-11-24T02:02:52.397Z,983.71
2022-11-24T02:03:52.322Z,983.73
2022-11-24T02:04:52.331Z,983.75
2022-11-24T02:05:52.311Z,983.74
2022-11-24T02:06:52.308Z,983.67
2022-11-24T02:07:52.346Z,983.80
2022-11-24T02:08:52.299Z,983.75
2022-11-24T02:09:52.279Z,983.77
2022-11-24T02:10:52.296Z,983.78
2022-11-24T02:11:52.275Z,983.81
2022-11-24T02:12:52.271Z,983.86
2022-11-24T02:13:52.254Z,983.78
2022-11-24T02:14:52.248Z,983.84
2022-11-24T02:15:52.262Z,983.80
2022-11-24T02:16:52.234Z,983.81
2022-11-24T02:17:52.251Z,983.81
2022-11-24T02:18:52.227Z,983.88
2022-11-24T02:19:52.221Z,983.90
2022-11-24T02:20:52.214Z,983.92
2022-11-24T02:21:52.210Z,983.87
2022-11-24T02:22:52.217Z,983.89
2022-11-24T02:23:52.195Z,983.83
2022-11-24T02:24:52.188Z,983.89
2022-11-24T02:25:52.180Z,983.89
2022-11-24T02:26:52.169Z,983.92
2022-11-24T02:27:54.087Z,983.90
2022-11-24T02:28:53.171Z,983.87
2022-11-24T02:29:52.161Z,983.80
2022-11-24T02:30:52.282Z,983.87
2022-11-24T02:31:52.144Z,983.90
2022-11-24T02:32:52.137Z,983.82
2022-11-24T02:33:52.153Z,983.94
2022-11-24T02:34:52.110Z,984.03
2022-11-24T02:35:52.119Z,983.92
2022-11-24T02:36:52.110Z,983.98
2022-11-24T02:37:52.102Z,984.08
2022-11-24T02:38:52.154Z,984.13
2022-11-24T02:39:52.086Z,984.11
2022-11-24T02:40:52.093Z,984.10
2022-11-24T02:41:52.081Z,984.03
2022-11-24T02:42:52.070Z,984.06
2022-11-24T02:43:52.058Z,984.02
2022-11-24T02:44:52.110Z,984.05
2022-11-24T02:45:52.108Z,984.09
2022-11-24T02:46:52.038Z,984.05
2022-11-24T02:47:52.041Z,984.08
2022-11-24T02:48:52.023Z,984.09
2022-11-24T02:49:52.026Z,984.05
2022-11-24T02:50:52.023Z,984.06
2022-11-24T02:51:52.010Z,984.06
2022-11-24T02:52:52.011Z,984.18
2022-11-24T02:53:51.993Z,984.13
2022-11-24T02:54:51.979Z,984.14
2022-11-24T02:55:52.042Z,984.11
2022-11-24T02:56:51.971Z,984.11
2022-11-24T02:57:51.989Z,984.16
2022-11-24T02:58:51.964Z,984.10
2022-11-24T02:59:51.948Z,984.11
2022-11-24T03:00:51.948Z,984.04
2022-11-24T03:01:51.991Z,984.09
2022-11-24T03:02:51.968Z,984.16
2022-11-24T03:03:51.926Z,984.13
2022-11-24T03:04:51.923Z,984.14
2022-11-24T03:05:51.910Z,984.16
2022-11-24T03:06:51.915Z,984.22
2022-11-24T03:07:51.930Z,984.18
2022-11-24T03:08:51.915Z,984.13
2022-11-24T03:09:51.887Z,984.12
2022-11-24T03:10:51.882Z,984.18
2022-11-24T03:11:51.863Z,984.16
2022-11-24T03:12:51.871Z,984.13
2022-11-24T03:13:51.874Z,984.15
2022-11-24T03:14:51.846Z,984.19
2022-11-24T03:15:51.928Z,984.20
2022-11-24T03:16:51.839Z,984.23
2022-11-24T03:17:51.829Z,984.23
2022-11-24T03:18:51.831Z,984.28
2022-11-24T03:19:51.839Z,984.23
2022-11-24T03:20:51.819Z,984.26
2022-11-24T03:21:51.816Z,984.20
2022-11-24T03:22:51.803Z,984.18
2022-11-24T03:23:51.795Z,984.18
2022-11-24T03:24:51.793Z,984.33
2022-11-24T03:25:51.786Z,984.27
2022-11-24T03:26:51.789Z,984.27
2022-11-24T03:27:51.757Z,984.29
2022-11-24T03:28:51.768Z,984.35
2022-11-24T03:29:51.764Z,984.37
2022-11-24T03:30:51.799Z,984.38
2022-11-24T03:31:51.748Z,984.35
2022-11-24T03:32:51.742Z,984.38
2022-11-24T03:33:51.720Z,984.36
2022-11-24T03:34:51.711Z,984.31
2022-11-24T03:35:51.718Z,984.35
2022-11-24T03:36:51.708Z,984.38
2022-11-24T03:37:51.723Z,984.41
2022-11-24T03:38:51.696Z,984.40
2022-11-24T03:39:51.684Z,984.44
2022-11-24T03:40:51.679Z,984.38
2022-11-24T03:41:51.681Z,984.45
2022-11-24T03:42:51.694Z,984.42
2022-11-24T03:43:51.657Z,984.47
2022-11-24T03:44:51.659Z,984.43
2022-11-24T03:45:51.651Z,984.46
2022-11-24T03:46:51.643Z,984.48
2022-11-24T03:47:51.640Z,984.47
2022-11-24T03:48:51.648Z,984.56
2022-11-24T03:49:51.620Z,984.53
2022-11-24T03:50:51.647Z,984.50
2022-11-24T03:51:51.615Z,984.53
2022-11-24T03:52:51.600Z,984.55
2022-11-24T03:53:51.606Z,984.51
2022-11-24T03:54:51.591Z,984.50
2022-11-24T03:55:51.608Z,984.50
2022-11-24T03:56:51.571Z,984.47
2022-11-24T03:57:51.570Z,984.53
2022-11-24T03:58:51.604Z,984.50
2022-11-24T03:59:51.561Z,984.59
2022-11-24T04:00:51.556Z,984.57
2022-11-24T04:01:51.593Z,984.62
2022-11-24T04:02:51.602Z,984.59
2022-11-24T04:03:51.532Z,984.63
2022-11-24T04:04:51.516Z,984.55
2022-11-24T04:05:51.511Z,984.65
2022-11-24T04:06:51.534Z,984.58
2022-11-24T04:07:51.536Z,984.68
2022-11-24T04:08:51.493Z,984.61
2022-11-24T04:09:51.500Z,984.59
2022-11-24T04:10:51.494Z,984.64
2022-11-24T04:11:51.476Z,984.58
2022-11-24T04:12:51.482Z,984.56
2022-11-24T04:13:51.480Z,984.58
2022-11-24T04:14:51.440Z,984.61
2022-11-24T04:15:51.481Z,984.66
2022-11-24T04:16:51.440Z,984.61
2022-11-24T04:17:51.424Z,984.67
2022-11-24T04:18:51.448Z,984.70
2022-11-24T04:19:51.419Z,984.66
2022-11-24T04:20:51.410Z,984.75
2022-11-24T04:21:51.422Z,984.77
2022-11-24T04:22:51.507Z,984.73
2022-11-24T04:23:51.394Z,984.74
2022-11-24T04:24:51.408Z,984.78
2022-11-24T04:25:51.396Z,984.77
2022-11-24T04:26:51.375Z,984.72
2022-11-24T04:27:51.368Z,984.76
2022-11-24T04:28:51.368Z,984.74
2022-11-24T04:29:51.360Z,984.67
2022-11-24T04:30:51.391Z,984.63
2022-11-24T04:31:51.394Z,984.68
2022-11-24T04:32:51.336Z,984.75
2022-11-24T04:33:51.332Z,984.73
2022-11-24T04:34:51.341Z,984.71
2022-11-24T04:35:51.328Z,984.73
2022-11-24T04:36:51.311Z,984.77
2022-11-24T04:37:51.307Z,984.73
2022-11-24T04:39:19.698Z,984.73
2022-11-24T04:39:52.307Z,984.77
2022-11-24T04:40:51.287Z,984.77
2022-11-24T04:41:51.273Z,984.76
2022-11-24T04:42:51.276Z,984.83
2022-11-24T04:43:51.267Z,984.78
2022-11-24T04:44:51.255Z,984.79
2022-11-24T04:45:51.256Z,984.86
2022-11-24T04:46:51.423Z,984.94
2022-11-24T04:47:51.234Z,984.85
2022-11-24T04:48:51.221Z,984.91
2022-11-24T04:49:51.230Z,984.86
2022-11-24T04:50:51.220Z,984.92
2022-11-24T04:51:51.195Z,984.96
2022-11-24T04:52:51.203Z,984.96
2022-11-24T04:53:51.200Z,984.89
2022-11-24T04:54:51.192Z,984.98
2022-11-24T04:55:51.202Z,985.02
2022-11-24T04:56:51.177Z,984.94
2022-11-24T04:57:51.159Z,984.96
2022-11-24T04:58:51.163Z,985.06
2022-11-24T04:59:51.163Z,985.03
2022-11-24T05:00:51.163Z,985.09
2022-11-24T05:01:51.255Z,985.05
2022-11-24T05:02:51.139Z,985.09
2022-11-24T05:03:51.177Z,985.06
2022-11-24T05:04:51.119Z,985.06
2022-11-24T05:05:51.124Z,985.06
2022-11-24T05:06:51.132Z,985.09
2022-11-24T05:07:51.128Z,985.06
2022-11-24T05:08:51.099Z,985.07
2022-11-24T05:09:59.343Z,985.09
2022-11-24T05:10:53.086Z,985.04
2022-11-24T05:11:51.079Z,985.08
2022-11-24T05:12:51.458Z,985.11
2022-11-24T05:13:52.056Z,985.08
2022-11-24T05:14:51.062Z,985.21
2022-11-24T05:15:51.099Z,985.20
2022-11-24T05:16:51.027Z,985.20
2022-11-24T05:17:51.043Z,985.20
2022-11-24T05:18:51.040Z,985.19
2022-11-24T05:19:51.030Z,985.15
2022-11-24T05:20:51.011Z,985.16
2022-11-24T05:21:51.011Z,985.20
2022-11-24T05:22:51.008Z,985.24
2022-11-24T05:23:50.992Z,985.25
2022-11-24T05:24:51.005Z,985.32
2022-11-24T05:25:50.982Z,985.31
2022-11-24T05:26:50.977Z,985.31
2022-11-24T05:27:50.971Z,985.37
2022-11-24T05:28:50.954Z,985.31
2022-11-24T05:29:50.955Z,985.33
2022-11-24T05:30:50.947Z,985.32
2022-11-24T05:31:50.968Z,985.33
2022-11-24T05:32:50.929Z,985.36
2022-11-24T05:33:50.928Z,985.30
2022-11-24T05:34:50.952Z,985.40
2022-11-24T05:35:50.912Z,985.41
2022-11-24T05:36:50.908Z,985.42
2022-11-24T05:37:50.903Z,985.44
2022-11-24T05:38:50.891Z,985.38
2022-11-24T05:39:50.895Z,985.38
2022-11-24T05:40:50.875Z,985.40
2022-11-24T05:41:50.887Z,985.44
2022-11-24T05:42:50.868Z,985.37
2022-11-24T05:43:50.846Z,985.40
2022-11-24T05:44:50.852Z,985.45
2022-11-24T05:45:50.843Z,985.43
2022-11-24T05:46:50.892Z,985.44
2022-11-24T05:47:50.849Z,985.45
2022-11-24T05:48:50.819Z,985.43
2022-11-24T05:49:50.824Z,985.46
2022-11-24T05:50:50.807Z,985.48
2022-11-24T05:51:50.831Z,985.45
2022-11-24T05:52:50.799Z,985.50
2022-11-24T05:53:50.796Z,985.51
2022-11-24T05:54:50.796Z,985.61
2022-11-24T05:55:50.783Z,985.57
2022-11-24T05:56:50.773Z,985.59
2022-11-24T05:57:50.780Z,985.54
2022-11-24T05:58:50.761Z,985.61
2022-11-24T05:59:50.751Z,985.57
2022-11-24T06:00:50.773Z,985.61
2022-11-24T06:01:50.851Z,985.60
2022-11-24T06:02:50.885Z,985.52
2022-11-24T06:03:50.726Z,985.60
2022-11-24T06:04:50.718Z,985.52
2022-11-24T06:05:50.710Z,985.54
2022-11-24T06:06:50.708Z,985.54
2022-11-24T06:07:50.757Z,985.58
2022-11-24T06:08:50.682Z,985.62
2022-11-24T06:09:50.678Z,985.65
2022-11-24T06:10:50.671Z,985.68
2022-11-24T06:11:50.669Z,985.78
2022-11-24T06:12:50.759Z,985.73
2022-11-24T06:13:50.710Z,985.75
2022-11-24T06:14:50.648Z,985.70
2022-11-24T06:15:50.641Z,985.76
2022-11-24T06:16:50.677Z,985.73
2022-11-24T06:17:50.640Z,985.67
2022-11-24T06:18:50.629Z,985.71
2022-11-24T06:19:50.623Z,985.64
2022-11-24T06:21:09.801Z,985.71
2022-11-24T06:21:52.603Z,985.75
2022-11-24T06:22:50.594Z,985.72
2022-11-24T06:23:50.603Z,985.75
2022-11-24T06:24:50.581Z,985.78
2022-11-24T06:25:51.680Z,985.74
2022-11-24T06:26:51.571Z,985.74
2022-11-24T06:27:50.575Z,985.74
2022-11-24T06:28:50.554Z,985.77
2022-11-24T06:29:50.548Z,985.72
2022-11-24T06:30:50.588Z,985.79
2022-11-24T06:31:50.596Z,985.80
2022-11-24T06:32:50.530Z,985.74
2022-11-24T06:33:50.533Z,985.76
2022-11-24T06:34:50.525Z,985.69
2022-11-24T06:35:50.534Z,985.76
2022-11-24T06:36:50.507Z,985.66
2022-11-24T06:37:50.502Z,985.64
2022-11-24T06:38:50.507Z,985.68
2022-11-24T06:39:50.490Z,985.69
2022-11-24T06:40:50.518Z,985.71
2022-11-24T06:41:50.477Z,985.71
2022-11-24T06:42:50.472Z,985.61
2022-11-24T06:43:50.468Z,985.66
2022-11-24T06:44:50.465Z,985.67
2022-11-24T06:45:50.525Z,985.61
2022-11-24T06:46:50.462Z,985.69
2022-11-24T06:47:50.434Z,985.75
2022-11-24T06:48:50.442Z,985.84
2022-11-24T06:49:50.431Z,985.71
2022-11-24T06:50:50.431Z,985.74
2022-11-24T06:51:50.411Z,985.80
2022-11-24T06:52:50.397Z,985.76
2022-11-24T06:53:50.403Z,985.85
2022-11-24T06:54:50.401Z,985.83
2022-11-24T06:55:50.381Z,985.87
2022-11-24T06:56:50.378Z,985.89
2022-11-24T06:57:50.378Z,985.87
2022-11-24T06:58:50.383Z,985.89
2022-11-24T06:59:50.355Z,985.88
2022-11-24T07:00:50.378Z,985.90
2022-11-24T07:01:50.347Z,985.86
2022-11-24T07:02:50.392Z,985.91
2022-11-24T07:03:50.365Z,985.89
2022-11-24T07:04:50.327Z,985.93
2022-11-24T07:05:50.314Z,985.91
2022-11-24T07:06:50.307Z,986.01
2022-11-24T07:07:51.058Z,986.02
2022-11-24T07:08:50.298Z,985.98
2022-11-24T07:09:50.307Z,986.11
2022-11-24T07:10:50.288Z,986.12
2022-11-24T07:11:50.285Z,986.14
2022-11-24T07:12:50.270Z,986.24
2022-11-24T07:13:53.850Z,986.23
2022-11-24T07:14:50.273Z,986.23
2022-11-24T07:15:50.255Z,986.24
2022-11-24T07:16:50.303Z,986.19
2022-11-24T07:17:50.238Z,986.24
2022-11-24T07:18:50.222Z,986.20
2022-11-24T07:19:50.231Z,986.22
2022-11-24T07:20:50.246Z,986.27
2022-11-24T07:21:50.216Z,986.26
2022-11-24T07:22:50.200Z,986.26
2022-11-24T07:23:50.189Z,986.23
2022-11-24T07:24:50.191Z,986.28
2022-11-24T07:25:50.199Z,986.31
2022-11-24T07:26:50.184Z,986.30
2022-11-24T07:27:50.175Z,986.27
2022-11-24T07:28:50.162Z,986.34
2022-11-24T07:29:50.155Z,986.34
2022-11-24T07:30:50.179Z,986.26
2022-11-24T07:31:50.273Z,986.35
2022-11-24T07:32:50.142Z,986.32
2022-11-24T07:33:50.134Z,986.45
2022-11-24T07:34:50.119Z,986.36
2022-11-24T07:35:50.130Z,986.28
2022-11-24T07:36:50.120Z,986.35
2022-11-24T07:37:50.904Z,986.39
2022-11-24T07:38:50.115Z,986.37
2022-11-24T07:39:50.094Z,986.41
2022-11-24T07:40:50.091Z,986.48
2022-11-24T07:41:50.075Z,986.47
2022-11-24T07:42:50.075Z,986.52
2022-11-24T07:43:50.092Z,986.50
2022-11-24T07:44:50.055Z,986.52
2022-11-24T07:45:50.101Z,986.51
2022-11-24T07:46:50.056Z,986.56
2022-11-24T07:47:50.029Z,986.52
2022-11-24T07:48:50.031Z,986.52
2022-11-24T07:49:50.046Z,986.54
2022-11-24T07:50:55.449Z,986.61
2022-11-24T07:51:52.017Z,986.56
2022-11-24T07:52:50.018Z,986.60
2022-11-24T07:53:50.018Z,986.62
2022-11-24T07:54:50.019Z,986.58
2022-11-24T07:55:49.992Z,986.59
2022-11-24T07:56:49.993Z,986.61
2022-11-24T07:57:49.977Z,986.57
2022-11-24T07:58:53.012Z,986.57
2022-11-24T07:59:50.976Z,986.62
2022-11-24T08:00:49.960Z,986.59
2022-11-24T08:01:50.011Z,986.58
2022-11-24T08:02:49.949Z,986.61
2022-11-24T08:03:49.994Z,986.63
2022-11-24T08:04:49.928Z,986.56
2022-11-24T08:06:16.066Z,986.56
2022-11-24T08:06:51.909Z,986.71
2022-11-24T08:07:49.940Z,986.67
2022-11-24T08:08:49.904Z,986.64
2022-11-24T08:09:49.916Z,986.64
2022-11-24T08:10:49.909Z,986.64
2022-11-24T08:11:49.901Z,986.61
2022-11-24T08:12:49.875Z,986.72
2022-11-24T08:13:49.885Z,986.68
2022-11-24T08:14:49.888Z,986.67
2022-11-24T08:15:49.859Z,986.80
2022-11-24T08:16:49.892Z,986.73
2022-11-24T08:17:49.852Z,986.75
2022-11-24T08:18:49.840Z,986.76
2022-11-24T08:19:49.864Z,986.81
2022-11-24T08:20:49.847Z,986.76
2022-11-24T08:21:49.827Z,986.79
2022-11-24T08:22:49.823Z,986.81
2022-11-24T08:23:49.809Z,986.77
2022-11-24T08:24:49.802Z,986.79
2022-11-24T08:25:52.935Z,986.85
2022-11-24T08:26:50.797Z,986.82
2022-11-24T08:27:49.780Z,986.84
2022-11-24T08:28:49.781Z,986.78
2022-11-24T08:29:49.778Z,986.86
2022-11-24T08:30:49.782Z,986.82
2022-11-24T08:31:49.794Z,986.86
2022-11-24T08:32:49.757Z,986.82
2022-11-24T08:33:49.740Z,986.85
2022-11-24T08:34:49.738Z,986.96
2022-11-24T08:35:49.723Z,986.89
2022-11-24T08:36:49.753Z,986.88
2022-11-24T08:37:49.720Z,986.85
2022-11-24T08:38:49.729Z,986.94
2022-11-24T08:39:49.699Z,986.93
2022-11-24T08:40:49.693Z,986.98
2022-11-24T08:41:49.706Z,987.00
2022-11-24T08:42:49.682Z,987.05
2022-11-24T08:43:49.696Z,987.06
2022-11-24T08:44:49.664Z,987.11
2022-11-24T08:45:49.690Z,987.04
2022-11-24T08:46:49.654Z,987.06
2022-11-24T08:47:49.650Z,987.03
2022-11-24T08:48:49.654Z,987.04
2022-11-24T08:49:49.664Z,987.08
2022-11-24T08:50:49.625Z,987.19
2022-11-24T08:51:49.619Z,987.08
2022-11-24T08:52:49.604Z,987.13
2022-11-24T08:53:49.606Z,987.12
2022-11-24T08:54:49.612Z,987.24
2022-11-24T08:55:49.589Z,987.19
2022-11-24T08:56:49.592Z,987.22
2022-11-24T08:57:50.577Z,987.19
2022-11-24T08:58:49.630Z,987.18
2022-11-24T08:59:49.569Z,987.27
2022-11-24T09:00:49.557Z,987.27
2022-11-24T09:01:49.664Z,987.22
2022-11-24T09:02:49.547Z,987.22
2022-11-24T09:03:51.037Z,987.15
2022-11-24T09:04:50.543Z,987.18
2022-11-24T09:05:52.191Z,987.22
2022-11-24T09:06:50.520Z,987.19
2022-11-24T09:07:49.585Z,987.21
2022-11-24T09:08:49.504Z,987.26
2022-11-24T09:09:49.509Z,987.24
2022-11-24T09:10:49.508Z,987.25
2022-11-24T09:11:49.481Z,987.32
2022-11-24T09:12:49.474Z,987.28
2022-11-24T09:13:49.495Z,987.33
2022-11-24T09:14:49.469Z,987.31
2022-11-24T09:15:49.452Z,987.28
2022-11-24T09:16:49.480Z,987.28
2022-11-24T09:17:49.445Z,987.32
2022-11-24T09:18:49.466Z,987.43
2022-11-24T09:19:49.440Z,987.37
2022-11-24T09:20:49.437Z,987.38
2022-11-24T09:21:49.424Z,987.37
2022-11-24T09:22:49.412Z,987.36
2022-11-24T09:23:49.421Z,987.39
2022-11-24T09:24:49.411Z,987.39
2022-11-24T09:25:49.397Z,987.45
2022-11-24T09:26:49.388Z,987.41
2022-11-24T09:27:49.392Z,987.42
2022-11-24T09:28:49.380Z,987.45
2022-11-24T09:29:49.372Z,987.47
2022-11-24T09:30:49.416Z,987.43
2022-11-24T09:31:49.349Z,987.46
2022-11-24T09:32:49.348Z,987.52
2022-11-24T09:33:49.335Z,987.49
2022-11-24T09:34:49.353Z,987.48
2022-11-24T09:35:50.326Z,987.50
2022-11-24T09:36:49.307Z,987.51
2022-11-24T09:37:49.305Z,987.57
2022-11-24T09:38:49.303Z,987.54
2022-11-24T09:39:49.300Z,987.54
2022-11-24T09:40:51.614Z,987.58
2022-11-24T09:41:49.287Z,987.63
2022-11-24T09:42:53.374Z,987.63
2022-11-24T09:43:50.273Z,987.59
2022-11-24T09:44:49.261Z,987.66
2022-11-24T09:46:05.151Z,987.60
2022-11-24T09:46:51.298Z,987.65
2022-11-24T09:47:49.234Z,987.57
2022-11-24T09:48:49.233Z,987.65
2022-11-24T09:49:51.493Z,987.56
2022-11-24T09:50:50.237Z,987.58
2022-11-24T09:51:49.224Z,987.66
2022-11-24T09:52:49.216Z,987.68
2022-11-24T09:53:49.205Z,987.74
2022-11-24T09:54:49.197Z,987.75
2022-11-24T09:55:49.190Z,987.75
2022-11-24T09:56:49.182Z,987.64
2022-11-24T09:57:49.197Z,987.69
2022-11-24T09:58:49.172Z,987.69
2022-11-24T09:59:49.161Z,987.72
2022-11-24T10:00:49.153Z,987.73
2022-11-24T10:01:49.175Z,987.69
2022-11-24T10:02:49.136Z,987.66
2022-11-24T10:03:49.141Z,987.62
2022-11-24T10:04:49.172Z,987.65
2022-11-24T10:05:49.126Z,987.65
2022-11-24T10:06:49.150Z,987.59
2022-11-24T10:07:49.111Z,987.60
2022-11-24T10:08:49.094Z,987.56
2022-11-24T10:09:49.095Z,987.65
2022-11-24T10:10:49.073Z,987.60
2022-11-24T10:11:49.066Z,987.62
2022-11-24T10:12:49.057Z,987.59
2022-11-24T10:13:49.070Z,987.62
2022-11-24T10:14:49.063Z,987.62
2022-11-24T10:15:49.086Z,987.61
2022-11-24T10:16:50.799Z,987.60
2022-11-24T10:17:49.041Z,987.61
2022-11-24T10:18:49.018Z,987.65
2022-11-24T10:19:49.011Z,987.64
2022-11-24T10:20:49.009Z,987.73
2022-11-24T10:21:48.998Z,987.76
2022-11-24T10:22:48.985Z,987.56
2022-11-24T10:23:48.966Z,987.54
2022-11-24T10:24:48.975Z,987.49
2022-11-24T10:25:48.990Z,987.51
2022-11-24T10:26:48.946Z,987.53
2022-11-24T10:27:48.953Z,987.56
2022-11-24T10:28:48.949Z,987.79
2022-11-24T10:29:48.933Z,987.50
2022-11-24T10:30:48.976Z,987.46
2022-11-24T10:31:48.923Z,987.48
2022-11-24T10:32:48.917Z,987.53
2022-11-24T10:33:48.910Z,987.55
2022-11-24T10:34:48.902Z,987.47
2022-11-24T10:35:48.890Z,987.60
2022-11-24T10:36:48.905Z,987.49
2022-11-24T10:37:48.885Z,987.48
2022-11-24T10:38:48.870Z,987.59
2022-11-24T10:39:48.855Z,987.53
2022-11-24T10:40:57.089Z,987.50
2022-11-24T10:41:50.849Z,987.69
2022-11-24T10:42:48.842Z,987.75
2022-11-24T10:43:48.850Z,987.56
2022-11-24T10:44:48.817Z,987.67
2022-11-24T10:45:49.843Z,987.80
2022-11-24T10:46:48.914Z,987.73
2022-11-24T10:47:48.816Z,987.43
2022-11-24T10:48:48.797Z,987.42
2022-11-24T10:49:48.785Z,987.42
2022-11-24T10:50:48.778Z,987.38
2022-11-24T10:51:48.857Z,987.33
2022-11-24T10:52:48.784Z,987.41
2022-11-24T10:53:48.749Z,987.34
2022-11-24T10:54:48.749Z,987.29
2022-11-24T10:55:48.747Z,987.48
2022-11-24T10:56:48.741Z,987.16
2022-11-24T10:57:48.754Z,987.38
2022-11-24T10:58:48.737Z,987.38
2022-11-24T10:59:48.726Z,987.37
2022-11-24T11:00:48.712Z,987.41
2022-11-24T11:01:48.883Z,987.36
2022-11-24T11:02:48.787Z,987.52
2022-11-24T11:03:48.705Z,987.42
2022-11-24T11:04:48.688Z,987.39
2022-11-24T11:05:48.674Z,987.39
2022-11-24T11:06:48.670Z,987.54
2022-11-24T11:07:48.713Z,987.61
2022-11-24T11:08:48.708Z,987.47
2022-11-24T11:09:48.657Z,987.57
2022-11-24T11:10:48.655Z,987.80
2022-11-24T11:11:48.651Z,987.68
2022-11-24T11:12:48.648Z,987.50
2022-11-24T11:13:48.646Z,987.34
2022-11-24T11:14:48.626Z,987.46
2022-11-24T11:15:48.627Z,987.41
2022-11-24T11:16:48.622Z,987.36
2022-11-24T11:17:48.605Z,987.28
2022-11-24T11:18:48.598Z,987.49
2022-11-24T11:19:50.016Z,987.44
2022-11-24T11:20:49.588Z,987.39
2022-11-24T11:21:48.565Z,987.34
2022-11-24T11:22:48.565Z,987.35
2022-11-24T11:23:48.573Z,987.28
2022-11-24T11:24:48.573Z,987.36
2022-11-24T11:25:48.538Z,987.42
2022-11-24T11:26:48.537Z,987.43
2022-11-24T11:27:48.550Z,987.48
2022-11-24T11:28:48.539Z,987.48
2022-11-24T11:34:09.537Z,987.51
2022-11-24T11:34:50.515Z,987.51
2022-11-24T11:35:48.485Z,987.51
2022-11-24T11:36:48.472Z,987.57
2022-11-24T11:37:48.460Z,987.59
2022-11-24T11:38:48.470Z,987.52
2022-11-24T11:39:49.215Z,987.54
2022-11-24T11:40:49.479Z,987.56
2022-11-24T11:41:48.438Z,987.53
2022-11-24T11:43:03.920Z,987.56
2022-11-24T11:43:50.479Z,987.71
2022-11-24T11:44:48.414Z,987.60
2022-11-24T11:45:48.438Z,987.71
2022-11-24T11:46:48.457Z,987.61
2022-11-24T11:47:48.407Z,987.66
2022-11-24T11:48:48.387Z,987.63
2022-11-24T11:49:48.381Z,987.62
2022-11-24T11:51:21.111Z,987.62
2022-11-24T11:51:50.364Z,987.64
2022-11-24T11:52:48.363Z,987.82
2022-11-24T11:53:48.349Z,987.82
2022-11-24T11:54:48.340Z,987.75
2022-11-24T11:55:50.130Z,987.86
2022-11-24T11:56:49.367Z,987.74
2022-11-24T11:57:48.328Z,987.56
2022-11-24T11:58:48.304Z,987.89
2022-11-24T11:59:48.308Z,987.95
2022-11-24T12:00:48.291Z,987.66
2022-11-24T12:01:48.280Z,987.67
2022-11-24T12:02:53.058Z,987.69
2022-11-24T12:03:50.412Z,987.59
2022-11-24T12:04:48.269Z,987.63
2022-11-24T12:05:48.267Z,987.61
2022-11-24T12:06:48.257Z,987.64
2022-11-24T12:07:48.321Z,987.66
2022-11-24T12:09:18.781Z,987.62
2022-11-24T12:09:50.235Z,987.69
2022-11-24T12:10:48.227Z,987.71
2022-11-24T12:11:48.226Z,987.76
2022-11-24T12:12:48.240Z,987.87
2022-11-24T12:13:48.212Z,987.74
2022-11-24T12:14:48.195Z,987.82
2022-11-24T12:15:48.244Z,987.86
2022-11-24T12:16:48.188Z,987.83
2022-11-24T12:17:48.175Z,987.92
2022-11-24T12:18:57.557Z,987.92
2022-11-24T12:19:50.203Z,987.82
2022-11-24T12:20:48.162Z,987.88
2022-11-24T12:21:48.157Z,987.96
2022-11-24T12:22:48.149Z,987.95
2022-11-24T12:23:48.132Z,988.01
2022-11-24T12:24:48.197Z,987.97
2022-11-24T12:25:48.117Z,987.99
2022-11-24T12:26:48.121Z,987.93
2022-11-24T12:27:48.106Z,987.90
2022-11-24T12:28:48.110Z,988.02
2022-11-24T12:29:48.087Z,988.00
2022-11-24T12:30:48.090Z,988.04
2022-11-24T12:31:48.148Z,988.09
2022-11-24T12:32:48.075Z,988.11